Flight Track Log - Related Links

Times and Time Zones

All times are in EDT time to prevent confusion due to time zone crossing. See the AAR8735 flight status page for this flight to view local times or setup timezone preferences in your user account.

Time Position Orientation Groundspeed Altitude Reporting Facility
EDT Latitude Longitude Course Direction KTS MPH feet Rate Location/Type
Sat 02:32:09 AM 37.4980 126.8670 148° Southeast 207 238 4,000  Level FlightAware ADS-B
Sat 02:32:21 AM 37.4840 126.8730 161° South 228 262 4,400 1,636 Climbing FlightAware ADS-B
Sat 02:32:31 AM 37.4750 126.8760 165° South 238 274 4,600 1,909 Climbing FlightAware ADS-B
Sat 02:33:05 AM 37.4340 126.8880 167° South 278 320 5,800 1,759 Climbing FlightAware ADS-B
Sat 02:33:29 AM 37.3990 126.8970 168° South 282 325 6,300 1,135 Climbing FlightAware ADS-B
Sat 02:33:42 AM 37.3850 126.9000 170° South 282 325 6,500 2,455 Climbing FlightAware ADS-B
Sat 02:34:13 AM 37.3430 126.9120 167° South 298 343 8,100 2,921 Climbing FlightAware ADS-B
Sat 02:34:58 AM 37.2880 126.9270 168° South 307 353 10,200 2,259 Climbing FlightAware ADS-B
Sat 02:35:38 AM 37.2260 126.9440 168° South 349 402 11,300 1,705 Climbing FlightAware ADS-B
Sat 02:36:26 AM 37.1420 126.9660 168° South 389 448 12,700 2,108 Climbing FlightAware ADS-B
Sat 02:37:29 AM 37.0270 126.9560 184° South 387 445 15,200 2,000 Climbing FlightAware ADS-B
Sat 02:38:05 AM 36.9700 126.9340 197° South 395 455 16,000 600 Climbing FlightAware ADS-B
Sat 02:38:49 AM 36.8920 126.9010 199° South 397 457 16,000  Level FlightAware ADS-B
Sat 02:39:46 AM 36.8030 126.8610 200° South 398 458 16,000  Level FlightAware ADS-B
Sat 02:40:34 AM 36.7320 126.8290 200° South 398 458 16,000  Level FlightAware ADS-B
Sat 02:41:10 AM 36.6790 126.8050 200° South 398 458 16,000  Level FlightAware ADS-B
Sat 02:41:34 AM 36.6440 126.7890 200° South 398 458 16,000  Level FlightAware ADS-B
Sat 02:42:26 AM 36.5680 126.7540 200° South 398 458 16,000  Level FlightAware ADS-B
Sat 02:43:14 AM 36.4970 126.7220 200° South 398 458 16,000  Level FlightAware ADS-B
Sat 02:45:00 AM 36.3292 126.8143 156° South  Level Estimated
Sat 02:46:00 AM 36.2342 126.8664 156° South  Level Estimated
Sat 02:47:00 AM 36.1391 126.9184 156° South  Level Estimated
Sat 02:48:00 AM 36.0441 126.9702 156° South  Level Estimated
Sat 02:49:00 AM 35.9490 127.0219 156° South  Level Estimated
Sat 02:50:00 AM 35.8539 127.0735 156° South  Level Estimated
Sat 02:51:00 AM 35.7588 127.1250 156° South  Level Estimated
Sat 02:52:00 AM 35.6636 127.1763 156° South  Level Estimated
Sat 02:53:00 AM 35.5684 127.2275 156° South  Level Estimated
Sat 02:54:00 AM 35.4732 127.2786 156° South  Level Estimated
Sat 02:55:00 AM 35.3780 127.3296 156° South  Level Estimated
Sat 02:56:00 AM 35.2828 127.3805 156° South  Level Estimated
Sat 02:57:00 AM 35.1875 127.4312 156° South  Level Estimated
Sat 02:58:00 AM 35.0923 127.4818 157° South  Level Estimated
Sat 02:59:00 AM 34.9969 127.5323 157° South  Level Estimated
Sat 03:00:00 AM 34.9016 127.5827 157° South  Level Estimated
Sat 03:01:00 AM 34.8398 127.6153 157° South  Level Estimated
Sat 03:02:00 AM 34.8398 127.6153 180° South  Level Estimated
Sat 03:03:00 AM 34.8398 127.6153 180° South  Level Estimated
Sat 03:04:00 AM 34.8398 127.6153 180° South  Level Estimated
Sat 03:05:00 AM 34.8398 127.6153 180° South  Level Estimated
Sat 03:06:00 AM 34.8398 127.6153 180° South  Level Estimated
Sat 03:07:00 AM 34.8398 127.6153 180° South  Level Estimated
Sat 03:08:00 AM 34.8398 127.6153 180° South  Level Estimated
Sat 03:09:00 AM 34.8398 127.6153 180° South  Level Estimated
Sat 03:10:00 AM 34.8398 127.6153 180° South  Level Estimated
Sat 03:11:00 AM 34.8398 127.6153 180° South  Level Estimated
Sat 03:12:00 AM 34.8398 127.6153 180° South  Level Estimated
Sat 03:13:00 AM 34.8398 127.6153 180° South  Level Estimated

Login

Don't have an account? Register now (free) for customized features, flight alerts, and more!